createdAt,value
2018-06-14T00:01:56.038Z,2.77
2018-06-14T00:04:25.326Z,4.33
2018-06-14T00:06:53.746Z,2.80
2018-06-14T00:09:22.214Z,3.37
2018-06-14T00:11:50.650Z,4.23
2018-06-14T00:14:19.063Z,4.83
2018-06-14T00:16:47.542Z,6.77
2018-06-14T00:19:16.752Z,2.37
2018-06-14T00:21:45.167Z,4.33
2018-06-14T00:24:13.605Z,2.53
2018-06-14T00:26:42.036Z,3.53
2018-06-14T00:29:10.593Z,4.30
2018-06-14T00:31:39.081Z,1.97
2018-06-14T00:34:07.498Z,3.20
2018-06-14T00:36:35.932Z,2.70
2018-06-14T00:39:05.940Z,3.97
2018-06-14T00:41:34.487Z,3.00
2018-06-14T00:44:03.279Z,3.97
2018-06-14T00:46:31.834Z,2.37
2018-06-14T00:48:59.939Z,5.03
2018-06-14T00:51:28.359Z,2.57
2018-06-14T00:53:56.858Z,3.27
2018-06-14T00:56:25.378Z,2.27
2018-06-14T00:58:53.777Z,4.57
2018-06-14T01:01:22.278Z,5.73
2018-06-14T01:03:50.707Z,2.47
2018-06-14T01:06:19.286Z,2.00
2018-06-14T01:08:47.746Z,3.60
2018-06-14T01:11:16.183Z,4.70
2018-06-14T01:13:44.630Z,2.67
2018-06-14T01:16:13.098Z,4.60
2018-06-14T01:18:41.526Z,3.27
2018-06-14T01:21:09.970Z,4.13
2018-06-14T01:23:38.597Z,2.43
2018-06-14T01:26:07.042Z,5.13
2018-06-14T01:28:35.457Z,2.97
2018-06-14T01:31:04.178Z,2.80
2018-06-14T01:33:32.589Z,4.47
2018-06-14T01:36:01.014Z,2.77
2018-06-14T01:38:29.450Z,6.17
2018-06-14T01:40:57.878Z,2.20
2018-06-14T01:43:26.329Z,2.83
2018-06-14T01:45:54.912Z,4.70
2018-06-14T01:48:23.569Z,2.50
2018-06-14T01:50:52.111Z,4.37
2018-06-14T01:53:20.713Z,2.23
2018-06-14T01:55:49.143Z,2.97
2018-06-14T01:58:17.682Z,3.43
2018-06-14T02:00:46.204Z,2.47
2018-06-14T02:03:14.721Z,2.90
2018-06-14T02:05:43.146Z,3.37
2018-06-14T02:08:11.622Z,2.50
2018-06-14T02:10:40.075Z,1.90
2018-06-14T02:13:08.514Z,2.37
2018-06-14T02:15:36.979Z,3.63
2018-06-14T02:18:05.474Z,2.53
2018-06-14T02:20:34.050Z,2.33
2018-06-14T02:23:02.742Z,4.10
2018-06-14T02:25:31.268Z,3.10
2018-06-14T02:27:59.841Z,4.13
2018-06-14T02:30:28.454Z,2.73
2018-06-14T02:32:56.902Z,3.50
2018-06-14T02:35:25.454Z,4.43
2018-06-14T02:37:53.926Z,2.13
2018-06-14T02:40:22.618Z,2.23
2018-06-14T02:42:51.050Z,2.90
2018-06-14T02:45:19.503Z,1.97
2018-06-14T02:47:47.922Z,1.47
2018-06-14T02:50:16.434Z,2.93
2018-06-14T02:52:44.897Z,2.40
2018-06-14T02:55:13.334Z,2.83
2018-06-14T02:57:41.850Z,1.97
2018-06-14T03:00:10.360Z,2.00
2018-06-14T03:02:38.877Z,3.13
2018-06-14T03:05:07.467Z,4.10
2018-06-14T03:07:36.457Z,2.07
2018-06-14T03:10:06.040Z,2.23
2018-06-14T03:12:34.454Z,1.80
2018-06-14T03:15:02.994Z,1.83
2018-06-14T03:17:31.528Z,2.30
2018-06-14T03:20:00.062Z,2.13
2018-06-14T03:22:28.554Z,2.63
2018-06-14T03:24:57.677Z,2.07
2018-06-14T03:27:26.082Z,2.73
2018-06-14T03:29:54.702Z,4.40
2018-06-14T03:32:23.433Z,2.57
2018-06-14T03:34:51.969Z,1.97
2018-06-14T03:37:20.453Z,2.00
2018-06-14T03:39:48.876Z,1.80
2018-06-14T03:42:17.452Z,2.37
2018-06-14T03:44:45.942Z,3.23
2018-06-14T03:47:14.378Z,4.87
2018-06-14T03:49:43.080Z,1.77
2018-06-14T03:52:12.418Z,2.23
2018-06-14T03:54:40.826Z,3.00
2018-06-14T03:57:09.637Z,2.23
2018-06-14T03:59:38.098Z,3.00
2018-06-14T04:02:06.873Z,2.50
2018-06-14T04:04:35.293Z,1.63
2018-06-14T04:07:03.769Z,2.83
2018-06-14T04:09:32.197Z,2.07
2018-06-14T04:12:00.637Z,2.40
2018-06-14T04:14:29.126Z,1.77
2018-06-14T04:16:57.578Z,1.83
2018-06-14T04:19:26.114Z,2.93
2018-06-14T04:21:54.687Z,3.47
2018-06-14T04:24:23.165Z,2.90
2018-06-14T04:26:51.804Z,3.03
2018-06-14T04:29:20.365Z,2.67
2018-06-14T04:31:48.770Z,3.70
2018-06-14T04:34:17.182Z,2.67
2018-06-14T04:36:45.642Z,2.03
2018-06-14T04:39:14.072Z,2.53
2018-06-14T04:41:42.672Z,1.87
2018-06-14T04:44:11.171Z,3.53
2018-06-14T04:46:39.597Z,2.80
2018-06-14T04:49:08.050Z,1.40
2018-06-14T04:51:43.918Z,3.20
2018-06-14T04:54:12.630Z,2.90
2018-06-14T04:56:42.223Z,2.57
2018-06-14T04:59:11.149Z,1.23
2018-06-14T05:01:39.621Z,2.33
2018-06-14T05:04:07.746Z,2.37
2018-06-14T05:06:36.205Z,3.03
2018-06-14T05:09:08.186Z,2.20
2018-06-14T05:11:36.630Z,1.87
2018-06-14T05:14:05.386Z,2.90
2018-06-14T05:16:33.842Z,2.20
2018-06-14T05:19:02.286Z,2.77
2018-06-14T05:21:30.768Z,2.43
2018-06-14T05:23:59.199Z,1.70
2018-06-14T05:26:27.652Z,2.13
2018-06-14T05:28:56.235Z,2.00
2018-06-14T05:31:24.687Z,2.53
2018-06-14T05:33:53.212Z,2.43
2018-06-14T05:36:21.704Z,2.10
2018-06-14T05:38:50.137Z,1.67
2018-06-14T05:41:18.594Z,2.77
2018-06-14T05:43:47.098Z,2.90
2018-06-14T05:46:15.530Z,1.67
2018-06-14T05:48:43.951Z,2.03
2018-06-14T05:51:12.526Z,2.73
2018-06-14T05:53:40.969Z,1.60
2018-06-14T05:56:09.444Z,2.47
2018-06-14T05:58:38.790Z,1.73
2018-06-14T06:01:07.383Z,2.27
2018-06-14T06:03:36.091Z,2.93
2018-06-14T06:06:04.612Z,2.00
2018-06-14T06:08:33.054Z,2.23
2018-06-14T06:11:01.510Z,3.30
2018-06-14T06:13:29.962Z,3.27
2018-06-14T06:15:58.414Z,3.23
2018-06-14T06:18:26.858Z,3.83
2018-06-14T06:20:55.326Z,1.47
2018-06-14T06:23:23.890Z,1.40
2018-06-14T06:25:52.319Z,3.60
2018-06-14T06:28:20.910Z,3.30
2018-06-14T06:30:49.375Z,2.83
2018-06-14T06:33:17.895Z,2.27
2018-06-14T06:35:46.345Z,1.60
2018-06-14T06:38:14.890Z,3.52
2018-06-14T06:40:43.426Z,1.90
2018-06-14T06:43:12.034Z,3.37
2018-06-14T06:45:40.710Z,2.27
2018-06-14T06:48:09.278Z,3.72
2018-06-14T06:50:37.986Z,2.33
2018-06-14T06:53:06.713Z,1.77
2018-06-14T06:55:35.158Z,2.90
2018-06-14T06:58:03.641Z,1.65
2018-06-14T07:00:32.074Z,2.72
2018-06-14T07:03:00.514Z,2.22
2018-06-14T07:05:29.074Z,3.67
2018-06-14T07:07:57.499Z,2.87
2018-06-14T07:10:26.004Z,2.30
2018-06-14T07:12:54.575Z,2.25
2018-06-14T07:15:23.164Z,1.92
2018-06-14T07:17:51.734Z,2.12
2018-06-14T07:20:20.216Z,3.92
2018-06-14T07:22:48.864Z,2.10
2018-06-14T07:25:17.438Z,1.98
2018-06-14T07:27:46.066Z,2.10
2018-06-14T07:30:14.667Z,2.22
2018-06-14T07:32:43.242Z,3.27
2018-06-14T07:35:11.835Z,3.30
2018-06-14T07:37:40.041Z,2.05
2018-06-14T07:40:08.523Z,2.83
2018-06-14T07:42:37.002Z,1.92
2018-06-14T07:45:05.970Z,2.00
2018-06-14T07:47:34.402Z,1.98
2018-06-14T07:50:02.897Z,2.15
2018-06-14T07:52:31.304Z,2.02
2018-06-14T07:54:59.849Z,3.55
2018-06-14T07:57:28.342Z,2.52
2018-06-14T07:59:56.791Z,1.85
2018-06-14T08:02:25.414Z,3.37
2018-06-14T08:04:53.983Z,2.62
2018-06-14T08:07:22.393Z,2.77
2018-06-14T08:09:50.817Z,2.75
2018-06-14T08:12:19.347Z,2.02
2018-06-14T08:14:47.750Z,2.83
2018-06-14T08:17:16.000Z,2.90
2018-06-14T08:19:44.477Z,2.37
2018-06-14T08:22:12.933Z,3.05
2018-06-14T08:24:41.370Z,2.33
2018-06-14T08:27:10.010Z,1.90
2018-06-14T08:29:38.443Z,3.35
2018-06-14T08:32:06.885Z,2.33
2018-06-14T08:34:35.447Z,2.40
2018-06-14T08:37:04.142Z,4.47
2018-06-14T08:39:32.660Z,2.00
2018-06-14T08:42:01.142Z,2.10
2018-06-14T08:44:29.698Z,2.10
2018-06-14T08:46:58.150Z,2.98
2018-06-14T08:49:26.623Z,2.05
2018-06-14T08:51:54.848Z,2.25
2018-06-14T08:54:23.312Z,2.37
2018-06-14T08:56:51.770Z,2.10
2018-06-14T08:59:20.241Z,2.30
2018-06-14T09:01:48.854Z,2.47
2018-06-14T09:04:17.315Z,3.90
2018-06-14T09:06:45.870Z,3.08
2018-06-14T09:09:15.214Z,2.17
2018-06-14T09:13:13.027Z,4.25
2018-06-14T09:15:41.463Z,2.30
2018-06-14T09:18:09.910Z,2.35
2018-06-14T09:20:38.519Z,2.95
2018-06-14T09:23:06.950Z,3.10
2018-06-14T09:25:35.388Z,2.75
2018-06-14T09:28:03.872Z,4.55
2018-06-14T09:30:32.308Z,3.75
2018-06-14T09:33:00.734Z,3.00
2018-06-14T09:35:29.962Z,3.85
2018-06-14T09:37:58.503Z,4.58
2018-06-14T09:40:27.170Z,4.60
2018-06-14T09:42:55.792Z,2.70
2018-06-14T09:45:24.528Z,4.85
2018-06-14T09:47:53.006Z,3.05
2018-06-14T09:50:21.757Z,3.87
2018-06-14T09:52:50.174Z,4.83
2018-06-14T09:55:18.718Z,5.40
2018-06-14T09:57:47.305Z,4.08
2018-06-14T10:00:15.770Z,2.60
2018-06-14T10:02:44.201Z,3.12
2018-06-14T10:05:12.727Z,5.37
2018-06-14T10:07:41.338Z,3.33
2018-06-14T10:10:10.070Z,2.40
2018-06-14T10:12:39.368Z,3.65
2018-06-14T10:15:08.000Z,2.95
2018-06-14T10:17:36.538Z,4.55
2018-06-14T10:20:05.277Z,3.08
2018-06-14T10:22:33.682Z,4.62
2018-06-14T10:25:02.216Z,3.40
2018-06-14T10:27:30.747Z,3.05
2018-06-14T10:29:59.285Z,4.47
2018-06-14T10:32:27.829Z,3.83
2018-06-14T10:34:56.602Z,3.70
2018-06-14T10:37:25.036Z,4.55
2018-06-14T10:39:53.586Z,3.67
2018-06-14T10:42:21.994Z,3.10
2018-06-14T10:44:50.420Z,4.85
2018-06-14T10:47:18.899Z,4.28
2018-06-14T10:49:47.306Z,4.65
2018-06-14T10:52:16.278Z,4.12
2018-06-14T10:54:44.776Z,3.40
2018-06-14T10:57:13.381Z,5.22
2018-06-14T10:59:41.957Z,8.30
2018-06-14T11:02:10.085Z,3.58
2018-06-14T11:04:38.499Z,3.33
2018-06-14T11:07:07.045Z,4.55
2018-06-14T11:09:35.630Z,4.12
2018-06-14T11:12:04.202Z,5.37
2018-06-14T11:14:32.731Z,3.10
2018-06-14T11:17:01.249Z,3.42
2018-06-14T11:19:29.709Z,4.40
2018-06-14T11:21:58.358Z,5.12
2018-06-14T11:24:26.861Z,5.20
2018-06-14T11:26:55.293Z,4.12
2018-06-14T11:29:23.842Z,4.15
2018-06-14T11:31:52.438Z,3.40
2018-06-14T11:34:20.990Z,4.25
2018-06-14T11:36:49.432Z,4.58
2018-06-14T11:39:17.935Z,3.83
2018-06-14T11:41:46.346Z,2.90
2018-06-14T11:44:14.777Z,3.33
2018-06-14T11:46:43.406Z,4.08
2018-06-14T11:49:11.834Z,3.95
2018-06-14T11:51:40.265Z,3.42
2018-06-14T11:54:08.893Z,3.37
2018-06-14T11:56:37.330Z,3.67
2018-06-14T11:59:05.786Z,6.10
2018-06-14T12:01:34.404Z,7.42
2018-06-14T12:04:02.847Z,3.40
2018-06-14T12:13:15.726Z,3.90
2018-06-14T12:15:44.386Z,4.55
2018-06-14T12:18:12.826Z,4.65
2018-06-14T12:20:41.351Z,4.25
2018-06-14T12:23:09.818Z,3.50
2018-06-14T12:25:38.346Z,3.35
2018-06-14T12:28:07.078Z,3.50
2018-06-14T12:30:35.642Z,4.33
2018-06-14T12:33:04.189Z,3.50
2018-06-14T12:35:32.798Z,4.97
2018-06-14T12:38:01.305Z,5.58
2018-06-14T12:40:30.714Z,5.00
2018-06-14T12:42:59.372Z,3.55
2018-06-14T12:45:27.926Z,4.05
2018-06-14T12:47:56.029Z,5.10
2018-06-14T12:50:24.474Z,4.08
2018-06-14T12:52:53.063Z,3.35
2018-06-14T12:55:21.753Z,6.37
2018-06-14T12:57:50.434Z,4.55
2018-06-14T13:00:19.127Z,4.33
2018-06-14T13:02:47.650Z,4.12
2018-06-14T13:05:16.179Z,4.92
2018-06-14T13:07:44.601Z,4.10
2018-06-14T13:10:13.273Z,3.67
2018-06-14T13:12:41.895Z,3.50
2018-06-14T13:15:10.310Z,3.45
2018-06-14T13:17:38.850Z,4.65
2018-06-14T13:20:07.420Z,3.58
2018-06-14T13:22:35.954Z,3.42
2018-06-14T13:25:04.454Z,4.33
2018-06-14T13:27:32.738Z,5.30
2018-06-14T13:30:01.288Z,4.30
2018-06-14T13:32:29.746Z,4.30
2018-06-14T13:34:58.442Z,4.03
2018-06-14T13:37:27.097Z,4.25
2018-06-14T13:39:55.519Z,3.67
2018-06-14T13:42:24.083Z,4.53
2018-06-14T13:44:52.499Z,3.52
2018-06-14T13:47:21.082Z,3.65
2018-06-14T13:49:49.678Z,4.35
2018-06-14T13:52:18.194Z,3.70
2018-06-14T13:54:46.597Z,3.27
2018-06-14T13:57:15.058Z,4.37
2018-06-14T14:06:27.454Z,3.92
2018-06-14T14:08:55.858Z,4.78
2018-06-14T14:11:24.283Z,3.60
2018-06-14T14:13:52.925Z,3.47
2018-06-14T14:16:21.449Z,4.70
2018-06-14T14:18:49.675Z,3.87
2018-06-14T14:21:18.233Z,4.10
2018-06-14T14:23:46.673Z,4.20
2018-06-14T14:26:15.053Z,3.80
2018-06-14T14:28:43.475Z,3.75
2018-06-14T14:31:11.926Z,4.92
2018-06-14T14:33:40.354Z,5.08
2018-06-14T14:36:08.822Z,3.87
2018-06-14T14:38:37.218Z,4.47
2018-06-14T14:41:06.383Z,4.80
2018-06-14T14:43:34.858Z,4.90
2018-06-14T14:46:02.965Z,4.70
2018-06-14T14:48:31.452Z,4.83
2018-06-14T14:51:00.143Z,4.00
2018-06-14T14:53:28.651Z,4.90
2018-06-14T14:55:57.087Z,5.12
2018-06-14T14:58:25.570Z,4.87
2018-06-14T15:00:54.094Z,4.45
2018-06-14T15:03:22.530Z,3.83
2018-06-14T15:05:50.833Z,4.30
2018-06-14T15:08:19.249Z,4.78
2018-06-14T15:10:47.689Z,4.97
2018-06-14T15:13:16.251Z,5.47
2018-06-14T15:15:44.698Z,5.05
2018-06-14T15:18:13.127Z,5.35
2018-06-14T15:20:41.275Z,5.45
2018-06-14T15:23:09.709Z,5.00
2018-06-14T15:25:38.276Z,4.45
2018-06-14T15:28:06.790Z,4.60
2018-06-14T15:30:35.246Z,4.70
2018-06-14T15:33:03.680Z,4.65
2018-06-14T15:35:32.255Z,4.30
2018-06-14T15:38:00.743Z,4.67
2018-06-14T15:40:29.274Z,5.22
2018-06-14T15:42:57.786Z,5.40
2018-06-14T15:45:26.223Z,6.08
2018-06-14T15:47:54.669Z,4.33
2018-06-14T15:50:23.290Z,4.65
2018-06-14T15:52:51.940Z,4.45
2018-06-14T15:55:31.655Z,4.70
2018-06-14T15:58:00.052Z,5.55
2018-06-14T16:00:28.482Z,5.17
2018-06-14T16:02:56.934Z,4.83
2018-06-14T16:05:25.338Z,5.62
2018-06-14T16:07:53.738Z,5.28
2018-06-14T16:10:22.201Z,5.05
2018-06-14T16:12:50.638Z,5.53
2018-06-14T16:15:19.348Z,5.20
2018-06-14T16:17:47.830Z,5.25
2018-06-14T16:20:16.243Z,5.78
2018-06-14T16:22:44.661Z,4.97
2018-06-14T16:25:13.121Z,5.87
2018-06-14T16:27:41.526Z,5.40
2018-06-14T16:30:09.947Z,5.08
2018-06-14T16:32:38.401Z,5.28
2018-06-14T16:35:06.903Z,4.80
2018-06-14T16:37:35.438Z,4.17
2018-06-14T16:40:03.613Z,4.65
2018-06-14T16:42:32.030Z,5.00
2018-06-14T16:45:00.481Z,4.45
2018-06-14T16:47:28.958Z,5.47
2018-06-14T16:49:57.536Z,4.58
2018-06-14T16:52:26.828Z,4.70
2018-06-14T16:54:55.696Z,4.35
2018-06-14T16:57:24.198Z,4.35
2018-06-14T16:59:52.620Z,4.35
2018-06-14T17:02:21.108Z,4.53
2018-06-14T17:04:49.544Z,5.55
2018-06-14T17:07:18.119Z,3.95
2018-06-14T17:09:46.914Z,4.12
2018-06-14T17:12:15.358Z,4.12
2018-06-14T17:14:43.914Z,3.95
2018-06-14T17:17:12.369Z,3.87
2018-06-14T17:19:40.908Z,6.25
2018-06-14T17:22:09.423Z,3.92
2018-06-14T17:24:38.106Z,4.10
2018-06-14T17:27:06.542Z,4.80
2018-06-14T17:29:35.070Z,3.95
2018-06-14T17:32:03.558Z,7.00
2018-06-14T17:34:31.978Z,3.95
2018-06-14T17:37:00.670Z,4.70
2018-06-14T17:39:29.755Z,4.47
2018-06-14T17:41:58.325Z,4.00
2018-06-14T17:44:27.022Z,4.37
2018-06-14T17:46:55.942Z,4.28
2018-06-14T17:49:24.486Z,4.05
2018-06-14T17:51:52.979Z,3.67
2018-06-14T17:54:21.487Z,4.65
2018-06-14T17:56:50.023Z,4.12
2018-06-14T17:59:18.402Z,4.92
2018-06-14T18:01:47.030Z,5.08
2018-06-14T18:04:15.571Z,3.87
2018-06-14T18:06:44.024Z,4.20
2018-06-14T18:09:12.498Z,4.60
2018-06-14T18:11:41.106Z,4.10
2018-06-14T18:14:09.538Z,4.30
2018-06-14T18:16:38.054Z,4.40
2018-06-14T18:19:06.552Z,4.20
2018-06-14T18:21:35.189Z,6.92
2018-06-14T18:24:03.678Z,4.95
2018-06-14T18:26:32.106Z,4.45
2018-06-14T18:29:00.511Z,5.12
2018-06-14T18:31:28.990Z,4.20
2018-06-14T18:33:57.414Z,4.60
2018-06-14T18:36:25.854Z,5.12
2018-06-14T18:38:54.446Z,4.20
2018-06-14T18:41:23.002Z,4.47
2018-06-14T18:43:51.536Z,4.95
2018-06-14T18:46:19.982Z,4.30
2018-06-14T18:48:48.426Z,4.45
2018-06-14T18:51:16.886Z,4.45
2018-06-14T18:53:45.371Z,4.53
2018-06-14T18:56:13.978Z,5.17
2018-06-14T18:58:42.471Z,4.80
2018-06-14T19:01:11.038Z,4.12
2018-06-14T19:03:39.507Z,4.78
2018-06-14T19:06:07.976Z,4.10
2018-06-14T19:08:36.759Z,4.70
2018-06-14T19:11:06.675Z,5.50
2018-06-14T19:13:35.132Z,4.42
2018-06-14T19:16:04.296Z,3.92
2018-06-14T19:18:34.584Z,4.60
2018-06-14T19:21:03.199Z,4.85
2018-06-14T19:23:31.835Z,4.87
2018-06-14T19:26:00.316Z,4.75
2018-06-14T19:28:28.846Z,4.87
2018-06-14T19:30:57.343Z,4.75
2018-06-14T19:33:26.592Z,5.45
2018-06-14T19:35:55.058Z,5.42
2018-06-14T19:38:23.597Z,4.67
2018-06-14T19:40:52.075Z,4.70
2018-06-14T19:43:20.538Z,4.80
2018-06-14T19:45:49.886Z,5.10
2018-06-14T19:48:18.357Z,5.85
2018-06-14T19:50:46.903Z,5.55
2018-06-14T19:53:15.435Z,7.83
2018-06-14T19:55:43.894Z,8.83
2018-06-14T20:04:56.384Z,5.55
2018-06-14T20:07:25.024Z,6.75
2018-06-14T20:09:53.459Z,6.30
2018-06-14T20:12:21.954Z,7.70
2018-06-14T20:14:50.366Z,7.95
2018-06-14T20:17:18.982Z,11.28
2018-06-14T20:19:47.473Z,10.78
2018-06-14T20:22:15.901Z,13.25
2018-06-14T20:24:44.409Z,11.00
2018-06-14T20:27:12.894Z,11.40
2018-06-14T20:29:41.454Z,11.75
2018-06-14T20:32:09.910Z,13.72
2018-06-14T20:34:38.444Z,14.75
2018-06-14T20:37:06.934Z,13.32
2018-06-14T20:39:35.490Z,15.38
2018-06-14T20:42:04.319Z,14.80
2018-06-14T20:44:32.742Z,14.20
2018-06-14T20:47:01.401Z,15.88
2018-06-14T20:49:29.886Z,16.12
2018-06-14T20:51:58.382Z,16.00
2018-06-14T20:54:26.939Z,16.62
2018-06-14T20:56:55.511Z,16.52
2018-06-14T20:59:23.970Z,15.72
2018-06-14T21:01:52.603Z,15.53
2018-06-14T21:04:21.222Z,14.67
2018-06-14T21:06:49.694Z,15.30
2018-06-14T21:09:18.206Z,15.65
2018-06-14T21:11:46.734Z,16.12
2018-06-14T21:14:15.195Z,15.60
2018-06-14T21:16:43.678Z,14.07
2018-06-14T21:19:12.182Z,14.23
2018-06-14T21:21:40.667Z,14.58
2018-06-14T21:24:09.146Z,14.70
2018-06-14T21:26:38.343Z,13.62
2018-06-14T21:29:06.798Z,14.07
2018-06-14T21:31:35.360Z,14.10
2018-06-14T21:34:03.850Z,13.83
2018-06-14T21:36:32.426Z,14.60
2018-06-14T21:39:00.929Z,14.27
2018-06-14T21:41:29.581Z,14.63
2018-06-14T21:43:58.053Z,15.95
2018-06-14T21:46:26.521Z,14.90
2018-06-14T21:48:55.114Z,14.33
2018-06-14T21:51:23.590Z,14.68
2018-06-14T21:53:52.093Z,14.35
2018-06-14T21:56:20.613Z,14.30
2018-06-14T21:58:49.072Z,14.93
2018-06-14T22:01:17.534Z,15.55
2018-06-14T22:03:51.187Z,15.43
2018-06-14T22:06:19.658Z,14.57
2018-06-14T22:08:48.099Z,14.20
2018-06-14T22:11:16.575Z,13.70
2018-06-14T22:13:45.078Z,12.25
2018-06-14T22:16:13.532Z,11.12
2018-06-14T22:18:42.148Z,11.63
2018-06-14T22:21:10.306Z,11.33
2018-06-14T22:23:38.787Z,12.13
2018-06-14T22:26:07.304Z,11.85
2018-06-14T22:28:35.827Z,10.82
2018-06-14T22:31:04.270Z,10.43
2018-06-14T22:33:44.054Z,11.08
2018-06-14T22:36:13.007Z,11.55
2018-06-14T22:38:41.486Z,10.23
2018-06-14T22:41:10.064Z,11.33
2018-06-14T22:43:38.519Z,11.25
2018-06-14T22:46:06.990Z,15.03
2018-06-14T22:48:35.545Z,10.48
2018-06-14T22:51:17.081Z,11.65
2018-06-14T22:53:45.958Z,12.18
2018-06-14T22:56:14.566Z,11.65
2018-06-14T22:58:43.150Z,12.40
2018-06-14T23:01:49.330Z,12.33
2018-06-14T23:04:19.865Z,13.20
2018-06-14T23:06:48.359Z,15.88
2018-06-14T23:10:40.198Z,14.03
2018-06-14T23:13:09.897Z,15.15
2018-06-14T23:15:38.026Z,14.00
2018-06-14T23:18:06.563Z,12.73
2018-06-14T23:20:35.957Z,13.78
2018-06-14T23:23:04.896Z,13.43
2018-06-14T23:25:33.770Z,12.95
2018-06-14T23:28:02.284Z,12.58
2018-06-14T23:30:30.782Z,13.47
2018-06-14T23:32:59.327Z,13.13
2018-06-14T23:35:27.787Z,13.45
2018-06-14T23:37:55.913Z,16.62
2018-06-14T23:47:08.567Z,14.60
2018-06-14T23:49:37.027Z,15.40
2018-06-14T23:52:05.757Z,16.80
2018-06-14T23:54:34.225Z,14.60
2018-06-14T23:57:02.712Z,15.80
2018-06-14T23:59:31.162Z,16.12
